sensor_id;sensor_type;location;lat;lon;timestamp;temperature;humidity
11423;DHT22;5768;51.476;7.210;2023-02-28T00:03:34;3.50;12.00
11423;DHT22;5768;51.476;7.210;2023-02-28T00:08:36;3.50;12.10
11423;DHT22;5768;51.476;7.210;2023-02-28T00:13:42;3.40;12.10
11423;DHT22;5768;51.476;7.210;2023-02-28T00:18:48;3.50;12.10
11423;DHT22;5768;51.476;7.210;2023-02-28T00:23:50;3.40;12.10
11423;DHT22;5768;51.476;7.210;2023-02-28T00:28:54;3.30;12.20
11423;DHT22;5768;51.476;7.210;2023-02-28T00:33:56;3.30;12.20
11423;DHT22;5768;51.476;7.210;2023-02-28T00:38:58;3.30;12.30
11423;DHT22;5768;51.476;7.210;2023-02-28T00:44:02;3.20;12.30
11423;DHT22;5768;51.476;7.210;2023-02-28T00:49:04;3.10;12.30
11423;DHT22;5768;51.476;7.210;2023-02-28T00:54:06;3.10;12.40
11423;DHT22;5768;51.476;7.210;2023-02-28T00:59:10;3.00;12.50
11423;DHT22;5768;51.476;7.210;2023-02-28T01:04:13;2.90;12.50
11423;DHT22;5768;51.476;7.210;2023-02-28T01:09:16;2.90;12.60
11423;DHT22;5768;51.476;7.210;2023-02-28T01:14:19;2.90;12.60
11423;DHT22;5768;51.476;7.210;2023-02-28T01:19:21;2.80;12.60
11423;DHT22;5768;51.476;7.210;2023-02-28T01:24:26;2.80;12.70
11423;DHT22;5768;51.476;7.210;2023-02-28T01:29:50;2.80;12.70
11423;DHT22;5768;51.476;7.210;2023-02-28T01:34:52;2.70;12.70
11423;DHT22;5768;51.476;7.210;2023-02-28T01:39:55;2.70;12.80
11423;DHT22;5768;51.476;7.210;2023-02-28T01:45:02;2.60;12.80
11423;DHT22;5768;51.476;7.210;2023-02-28T01:50:12;2.60;12.80
11423;DHT22;5768;51.476;7.210;2023-02-28T01:55:19;2.60;12.80
11423;DHT22;5768;51.476;7.210;2023-02-28T02:00:26;2.60;12.80
11423;DHT22;5768;51.476;7.210;2023-02-28T02:05:30;2.60;12.90
11423;DHT22;5768;51.476;7.210;2023-02-28T02:10:38;2.60;12.80
11423;DHT22;5768;51.476;7.210;2023-02-28T02:15:49;2.50;12.90
11423;DHT22;5768;51.476;7.210;2023-02-28T02:21:26;2.50;12.90
11423;DHT22;5768;51.476;7.210;2023-02-28T02:27:05;2.50;12.90
11423;DHT22;5768;51.476;7.210;2023-02-28T02:32:54;2.40;12.90
11423;DHT22;5768;51.476;7.210;2023-02-28T02:38:09;2.30;12.90
11423;DHT22;5768;51.476;7.210;2023-02-28T02:43:22;2.40;12.90
11423;DHT22;5768;51.476;7.210;2023-02-28T02:48:33;2.30;12.90
11423;DHT22;5768;51.476;7.210;2023-02-28T02:53:42;2.20;12.90
11423;DHT22;5768;51.476;7.210;2023-02-28T02:58:51;2.20;12.90
11423;DHT22;5768;51.476;7.210;2023-02-28T03:03:56;2.20;12.90
11423;DHT22;5768;51.476;7.210;2023-02-28T03:09:02;2.20;12.80
11423;DHT22;5768;51.476;7.210;2023-02-28T03:14:21;2.20;12.80
11423;DHT22;5768;51.476;7.210;2023-02-28T03:25:17;2.00;12.90
11423;DHT22;5768;51.476;7.210;2023-02-28T03:30:26;2.00;12.80
11423;DHT22;5768;51.476;7.210;2023-02-28T03:35:37;2.00;12.80
11423;DHT22;5768;51.476;7.210;2023-02-28T03:40:47;2.00;12.90
11423;DHT22;5768;51.476;7.210;2023-02-28T03:45:52;2.00;12.80
11423;DHT22;5768;51.476;7.210;2023-02-28T03:50:58;1.90;12.90
11423;DHT22;5768;51.476;7.210;2023-02-28T03:56:07;1.90;12.90
11423;DHT22;5768;51.476;7.210;2023-02-28T04:01:19;1.90;12.90
11423;DHT22;5768;51.476;7.210;2023-02-28T04:06:25;1.80;12.90
11423;DHT22;5768;51.476;7.210;2023-02-28T04:11:33;1.80;12.90
11423;DHT22;5768;51.476;7.210;2023-02-28T04:16:40;1.80;12.90
11423;DHT22;5768;51.476;7.210;2023-02-28T04:21:45;1.80;13.00
11423;DHT22;5768;51.476;7.210;2023-02-28T04:26:53;1.80;12.90
11423;DHT22;5768;51.476;7.210;2023-02-28T04:31:56;1.80;12.90
11423;DHT22;5768;51.476;7.210;2023-02-28T04:36:59;1.80;12.90
11423;DHT22;5768;51.476;7.210;2023-02-28T04:42:03;1.80;12.80
11423;DHT22;5768;51.476;7.210;2023-02-28T04:47:05;1.70;12.80
11423;DHT22;5768;51.476;7.210;2023-02-28T04:52:07;1.70;12.80
11423;DHT22;5768;51.476;7.210;2023-02-28T04:57:11;1.70;12.80
11423;DHT22;5768;51.476;7.210;2023-02-28T05:02:13;1.70;12.80
11423;DHT22;5768;51.476;7.210;2023-02-28T05:07:16;1.70;12.80
11423;DHT22;5768;51.476;7.210;2023-02-28T05:12:19;1.60;12.80
11423;DHT22;5768;51.476;7.210;2023-02-28T05:17:21;1.50;12.80
11423;DHT22;5768;51.476;7.210;2023-02-28T05:22:23;1.50;12.70
11423;DHT22;5768;51.476;7.210;2023-02-28T05:27:27;1.50;12.70
11423;DHT22;5768;51.476;7.210;2023-02-28T05:32:29;1.50;12.80
11423;DHT22;5768;51.476;7.210;2023-02-28T05:37:31;1.50;12.70
11423;DHT22;5768;51.476;7.210;2023-02-28T05:42:35;1.40;12.70
11423;DHT22;5768;51.476;7.210;2023-02-28T05:47:37;1.40;12.80
11423;DHT22;5768;51.476;7.210;2023-02-28T05:52:39;1.40;12.70
11423;DHT22;5768;51.476;7.210;2023-02-28T05:57:44;1.40;12.70
11423;DHT22;5768;51.476;7.210;2023-02-28T06:02:46;1.40;12.70
11423;DHT22;5768;51.476;7.210;2023-02-28T06:07:49;1.30;12.70
11423;DHT22;5768;51.476;7.210;2023-02-28T06:12:52;1.30;12.70
11423;DHT22;5768;51.476;7.210;2023-02-28T06:17:55;1.40;12.70
11423;DHT22;5768;51.476;7.210;2023-02-28T06:22:58;1.50;12.70
11423;DHT22;5768;51.476;7.210;2023-02-28T06:28:02;1.50;12.60
11423;DHT22;5768;51.476;7.210;2023-02-28T06:33:04;1.50;12.60
11423;DHT22;5768;51.476;7.210;2023-02-28T06:38:06;1.40;12.50
11423;DHT22;5768;51.476;7.210;2023-02-28T06:43:10;1.50;12.40
11423;DHT22;5768;51.476;7.210;2023-02-28T06:48:13;1.60;12.40
11423;DHT22;5768;51.476;7.210;2023-02-28T06:53:15;1.70;12.40
11423;DHT22;5768;51.476;7.210;2023-02-28T06:58:19;1.60;12.40
11423;DHT22;5768;51.476;7.210;2023-02-28T07:03:21;1.80;12.40
11423;DHT22;5768;51.476;7.210;2023-02-28T07:08:23;1.90;12.30
11423;DHT22;5768;51.476;7.210;2023-02-28T07:13:29;1.90;12.20
11423;DHT22;5768;51.476;7.210;2023-02-28T07:18:32;2.00;12.20
11423;DHT22;5768;51.476;7.210;2023-02-28T07:23:35;2.10;12.10
11423;DHT22;5768;51.476;7.210;2023-02-28T07:28:39;2.30;12.00
11423;DHT22;5768;51.476;7.210;2023-02-28T07:33:42;2.40;11.90
11423;DHT22;5768;51.476;7.210;2023-02-28T07:38:46;2.50;12.50
11423;DHT22;5768;51.476;7.210;2023-02-28T07:43:53;2.50;11.90
11423;DHT22;5768;51.476;7.210;2023-02-28T07:48:56;2.70;11.80
11423;DHT22;5768;51.476;7.210;2023-02-28T07:54:00;2.70;11.70
11423;DHT22;5768;51.476;7.210;2023-02-28T07:59:03;2.70;11.60
11423;DHT22;5768;51.476;7.210;2023-02-28T08:04:05;2.80;11.70
11423;DHT22;5768;51.476;7.210;2023-02-28T08:09:07;2.90;11.60
11423;DHT22;5768;51.476;7.210;2023-02-28T08:14:12;3.10;11.50
11423;DHT22;5768;51.476;7.210;2023-02-28T08:19:16;3.60;11.30
11423;DHT22;5768;51.476;7.210;2023-02-28T08:24:18;3.90;11.10
11423;DHT22;5768;51.476;7.210;2023-02-28T08:29:22;3.90;11.00
11423;DHT22;5768;51.476;7.210;2023-02-28T08:34:24;4.00;11.00
11423;DHT22;5768;51.476;7.210;2023-02-28T08:39:27;4.20;10.80
11423;DHT22;5768;51.476;7.210;2023-02-28T08:44:30;4.30;10.80
11423;DHT22;5768;51.476;7.210;2023-02-28T08:49:32;4.40;10.60
11423;DHT22;5768;51.476;7.210;2023-02-28T08:54:35;4.60;10.60
11423;DHT22;5768;51.476;7.210;2023-02-28T08:59:40;4.80;10.50
11423;DHT22;5768;51.476;7.210;2023-02-28T09:04:42;4.80;10.40
11423;DHT22;5768;51.476;7.210;2023-02-28T09:09:45;4.80;10.30
11423;DHT22;5768;51.476;7.210;2023-02-28T09:14:56;5.00;10.20
11423;DHT22;5768;51.476;7.210;2023-02-28T09:19:58;5.00;10.00
11423;DHT22;5768;51.476;7.210;2023-02-28T09:25:00;4.90;9.90
11423;DHT22;5768;51.476;7.210;2023-02-28T09:30:04;5.00;9.90
11423;DHT22;5768;51.476;7.210;2023-02-28T09:35:08;5.20;9.80
11423;DHT22;5768;51.476;7.210;2023-02-28T09:40:14;5.30;9.80
11423;DHT22;5768;51.476;7.210;2023-02-28T09:45:24;5.40;9.80
11423;DHT22;5768;51.476;7.210;2023-02-28T09:50:32;5.60;9.70
11423;DHT22;5768;51.476;7.210;2023-02-28T09:55:40;5.70;9.70
11423;DHT22;5768;51.476;7.210;2023-02-28T10:00:53;5.90;9.70
11423;DHT22;5768;51.476;7.210;2023-02-28T10:06:06;6.10;9.60
11423;DHT22;5768;51.476;7.210;2023-02-28T10:11:15;6.10;9.60
11423;DHT22;5768;51.476;7.210;2023-02-28T10:16:26;6.20;9.60
11423;DHT22;5768;51.476;7.210;2023-02-28T10:21:37;6.10;9.50
11423;DHT22;5768;51.476;7.210;2023-02-28T10:26:45;6.10;9.50
11423;DHT22;5768;51.476;7.210;2023-02-28T10:31:51;6.10;9.50
11423;DHT22;5768;51.476;7.210;2023-02-28T10:36:53;6.20;9.40
11423;DHT22;5768;51.476;7.210;2023-02-28T10:42:22;6.40;9.20
11423;DHT22;5768;51.476;7.210;2023-02-28T10:47:27;6.50;9.20
11423;DHT22;5768;51.476;7.210;2023-02-28T10:52:38;6.50;9.10
11423;DHT22;5768;51.476;7.210;2023-02-28T10:57:46;6.60;9.00
11423;DHT22;5768;51.476;7.210;2023-02-28T11:02:52;6.70;9.00
11423;DHT22;5768;51.476;7.210;2023-02-28T11:07:56;6.70;9.00
11423;DHT22;5768;51.476;7.210;2023-02-28T11:13:05;6.90;8.90
11423;DHT22;5768;51.476;7.210;2023-02-28T11:18:20;7.00;8.90
11423;DHT22;5768;51.476;7.210;2023-02-28T11:23:28;7.10;9.00
11423;DHT22;5768;51.476;7.210;2023-02-28T11:28:37;7.00;8.90
11423;DHT22;5768;51.476;7.210;2023-02-28T11:33:43;7.20;9.30
11423;DHT22;5768;51.476;7.210;2023-02-28T11:38:48;7.40;8.90
11423;DHT22;5768;51.476;7.210;2023-02-28T11:44:02;7.60;9.10
11423;DHT22;5768;51.476;7.210;2023-02-28T11:49:25;8.00;8.90
11423;DHT22;5768;51.476;7.210;2023-02-28T11:54:56;8.20;8.70
11423;DHT22;5768;51.476;7.210;2023-02-28T12:00:11;8.80;8.70
11423;DHT22;5768;51.476;7.210;2023-02-28T12:05:31;9.00;8.60
11423;DHT22;5768;51.476;7.210;2023-02-28T12:10:49;9.10;8.70
11423;DHT22;5768;51.476;7.210;2023-02-28T12:16:28;9.30;8.50
11423;DHT22;5768;51.476;7.210;2023-02-28T12:22:01;9.20;8.70
11423;DHT22;5768;51.476;7.210;2023-02-28T12:27:19;9.40;8.60
11423;DHT22;5768;51.476;7.210;2023-02-28T12:32:27;9.80;8.50
11423;DHT22;5768;51.476;7.210;2023-02-28T12:37:38;10.10;8.40
11423;DHT22;5768;51.476;7.210;2023-02-28T12:42:48;10.40;8.50
11423;DHT22;5768;51.476;7.210;2023-02-28T12:47:58;10.70;8.30
11423;DHT22;5768;51.476;7.210;2023-02-28T12:53:07;11.00;8.20
11423;DHT22;5768;51.476;7.210;2023-02-28T12:58:20;11.60;8.50
11423;DHT22;5768;51.476;7.210;2023-02-28T13:04:20;11.70;8.30
11423;DHT22;5768;51.476;7.210;2023-02-28T13:09:35;12.10;8.10
11423;DHT22;5768;51.476;7.210;2023-02-28T13:14:39;12.50;8.10
11423;DHT22;5768;51.476;7.210;2023-02-28T13:19:44;12.80;8.00
11423;DHT22;5768;51.476;7.210;2023-02-28T13:24:51;13.40;8.00
11423;DHT22;5768;51.476;7.210;2023-02-28T13:29:54;13.80;7.80
11423;DHT22;5768;51.476;7.210;2023-02-28T13:35:35;14.30;7.80
11423;DHT22;5768;51.476;7.210;2023-02-28T13:40:40;15.00;7.70
11423;DHT22;5768;51.476;7.210;2023-02-28T13:46:08;15.90;7.70
11423;DHT22;5768;51.476;7.210;2023-02-28T13:51:38;16.70;7.40
11423;DHT22;5768;51.476;7.210;2023-02-28T13:56:46;16.80;7.40
11423;DHT22;5768;51.476;7.210;2023-02-28T14:02:20;18.00;7.20
11423;DHT22;5768;51.476;7.210;2023-02-28T14:07:40;17.80;7.00
11423;DHT22;5768;51.476;7.210;2023-02-28T14:18:32;19.50;6.70
11423;DHT22;5768;51.476;7.210;2023-02-28T14:24:16;19.30;6.70
11423;DHT22;5768;51.476;7.210;2023-02-28T14:30:14;19.60;6.70
11423;DHT22;5768;51.476;7.210;2023-02-28T14:35:50;20.10;6.50
11423;DHT22;5768;51.476;7.210;2023-02-28T14:41:04;21.10;6.60
11423;DHT22;5768;51.476;7.210;2023-02-28T14:46:17;21.20;6.30
11423;DHT22;5768;51.476;7.210;2023-02-28T14:51:21;21.70;6.20
11423;DHT22;5768;51.476;7.210;2023-02-28T14:56:27;21.00;6.10
11423;DHT22;5768;51.476;7.210;2023-02-28T15:01:38;21.30;6.10
11423;DHT22;5768;51.476;7.210;2023-02-28T15:06:40;21.40;6.00
11423;DHT22;5768;51.476;7.210;2023-02-28T15:11:46;22.00;6.10
11423;DHT22;5768;51.476;7.210;2023-02-28T15:16:56;22.10;5.90
11423;DHT22;5768;51.476;7.210;2023-02-28T15:22:06;21.80;6.00
11423;DHT22;5768;51.476;7.210;2023-02-28T15:27:16;21.80;6.00
11423;DHT22;5768;51.476;7.210;2023-02-28T15:32:29;22.10;5.70
11423;DHT22;5768;51.476;7.210;2023-02-28T15:37:41;21.90;5.70
11423;DHT22;5768;51.476;7.210;2023-02-28T15:43:13;22.40;5.70
11423;DHT22;5768;51.476;7.210;2023-02-28T15:48:20;22.60;5.70
11423;DHT22;5768;51.476;7.210;2023-02-28T15:53:28;22.70;5.60
11423;DHT22;5768;51.476;7.210;2023-02-28T15:58:35;22.50;5.60
11423;DHT22;5768;51.476;7.210;2023-02-28T16:03:44;21.60;5.90
11423;DHT22;5768;51.476;7.210;2023-02-28T16:08:49;20.70;6.00
11423;DHT22;5768;51.476;7.210;2023-02-28T16:13:52;20.70;6.10
11423;DHT22;5768;51.476;7.210;2023-02-28T16:18:56;19.60;6.10
11423;DHT22;5768;51.476;7.210;2023-02-28T16:23:58;17.80;6.40
11423;DHT22;5768;51.476;7.210;2023-02-28T16:29:01;16.30;6.70
11423;DHT22;5768;51.476;7.210;2023-02-28T16:34:05;15.50;6.90
11423;DHT22;5768;51.476;7.210;2023-02-28T16:39:07;14.60;7.00
11423;DHT22;5768;51.476;7.210;2023-02-28T16:44:12;13.60;7.30
11423;DHT22;5768;51.476;7.210;2023-02-28T16:49:22;12.70;7.50
11423;DHT22;5768;51.476;7.210;2023-02-28T16:54:24;11.60;7.70
11423;DHT22;5768;51.476;7.210;2023-02-28T16:59:27;11.40;7.70
11423;DHT22;5768;51.476;7.210;2023-02-28T17:04:31;10.90;7.90
11423;DHT22;5768;51.476;7.210;2023-02-28T17:09:33;10.50;8.00
11423;DHT22;5768;51.476;7.210;2023-02-28T17:14:37;10.00;8.10
11423;DHT22;5768;51.476;7.210;2023-02-28T17:19:40;9.60;8.20
11423;DHT22;5768;51.476;7.210;2023-02-28T17:24:44;9.40;8.40
11423;DHT22;5768;51.476;7.210;2023-02-28T17:29:46;9.00;8.40
11423;DHT22;5768;51.476;7.210;2023-02-28T17:34:50;8.80;8.60
11423;DHT22;5768;51.476;7.210;2023-02-28T17:39:52;8.40;8.70
11423;DHT22;5768;51.476;7.210;2023-02-28T17:44:55;8.30;8.80
11423;DHT22;5768;51.476;7.210;2023-02-28T17:49:58;8.40;8.70
11423;DHT22;5768;51.476;7.210;2023-02-28T17:55:00;8.10;8.80
11423;DHT22;5768;51.476;7.210;2023-02-28T18:00:03;7.90;8.90
11423;DHT22;5768;51.476;7.210;2023-02-28T18:05:09;7.80;8.90
11423;DHT22;5768;51.476;7.210;2023-02-28T18:10:14;7.60;9.00
11423;DHT22;5768;51.476;7.210;2023-02-28T18:15:21;7.40;9.10
11423;DHT22;5768;51.476;7.210;2023-02-28T18:20:25;7.40;9.10
11423;DHT22;5768;51.476;7.210;2023-02-28T18:25:28;7.30;9.20
11423;DHT22;5768;51.476;7.210;2023-02-28T18:30:34;7.10;9.20
11423;DHT22;5768;51.476;7.210;2023-02-28T18:35:38;6.90;9.30
11423;DHT22;5768;51.476;7.210;2023-02-28T18:40:41;6.80;9.30
11423;DHT22;5768;51.476;7.210;2023-02-28T18:45:44;6.80;9.40
11423;DHT22;5768;51.476;7.210;2023-02-28T18:50:47;6.60;9.40
11423;DHT22;5768;51.476;7.210;2023-02-28T18:55:51;6.50;9.40
11423;DHT22;5768;51.476;7.210;2023-02-28T19:00:53;6.40;9.50
11423;DHT22;5768;51.476;7.210;2023-02-28T19:05:58;6.40;9.50
11423;DHT22;5768;51.476;7.210;2023-02-28T19:11:05;6.20;9.60
11423;DHT22;5768;51.476;7.210;2023-02-28T19:16:09;6.10;9.70
11423;DHT22;5768;51.476;7.210;2023-02-28T19:21:15;6.10;9.70
11423;DHT22;5768;51.476;7.210;2023-02-28T19:26:21;6.00;9.70
11423;DHT22;5768;51.476;7.210;2023-02-28T19:31:25;5.90;9.80
11423;DHT22;5768;51.476;7.210;2023-02-28T19:36:29;5.90;9.80
11423;DHT22;5768;51.476;7.210;2023-02-28T19:41:31;5.70;9.80
11423;DHT22;5768;51.476;7.210;2023-02-28T19:46:33;5.80;9.90
11423;DHT22;5768;51.476;7.210;2023-02-28T19:51:36;5.70;9.90
11423;DHT22;5768;51.476;7.210;2023-02-28T19:56:40;5.60;9.90
11423;DHT22;5768;51.476;7.210;2023-02-28T20:01:42;5.50;10.00
11423;DHT22;5768;51.476;7.210;2023-02-28T20:06:46;5.60;10.00
11423;DHT22;5768;51.476;7.210;2023-02-28T20:11:48;5.50;10.00
11423;DHT22;5768;51.476;7.210;2023-02-28T20:16:50;5.40;10.10
11423;DHT22;5768;51.476;7.210;2023-02-28T20:21:53;5.30;10.10
11423;DHT22;5768;51.476;7.210;2023-02-28T20:26:55;5.20;10.20
11423;DHT22;5768;51.476;7.210;2023-02-28T20:31:57;5.20;10.20
11423;DHT22;5768;51.476;7.210;2023-02-28T20:37:01;5.10;10.20
11423;DHT22;5768;51.476;7.210;2023-02-28T20:42:03;5.00;10.30
11423;DHT22;5768;51.476;7.210;2023-02-28T20:47:05;4.90;10.30
11423;DHT22;5768;51.476;7.210;2023-02-28T20:52:09;5.00;10.30
11423;DHT22;5768;51.476;7.210;2023-02-28T20:57:11;4.80;10.40
11423;DHT22;5768;51.476;7.210;2023-02-28T21:02:14;4.80;10.50
11423;DHT22;5768;51.476;7.210;2023-02-28T21:07:18;4.60;10.50
11423;DHT22;5768;51.476;7.210;2023-02-28T21:12:21;4.60;10.50
11423;DHT22;5768;51.476;7.210;2023-02-28T21:17:23;4.40;10.60
11423;DHT22;5768;51.476;7.210;2023-02-28T21:22:26;4.50;10.60
11423;DHT22;5768;51.476;7.210;2023-02-28T21:27:28;4.50;10.60
11423;DHT22;5768;51.476;7.210;2023-02-28T21:32:31;4.40;10.70
11423;DHT22;5768;51.476;7.210;2023-02-28T21:37:36;4.30;10.70
11423;DHT22;5768;51.476;7.210;2023-02-28T21:42:38;4.20;10.80
11423;DHT22;5768;51.476;7.210;2023-02-28T21:47:40;4.20;10.80
11423;DHT22;5768;51.476;7.210;2023-02-28T21:52:44;4.20;10.80
11423;DHT22;5768;51.476;7.210;2023-02-28T21:57:46;4.10;10.80
11423;DHT22;5768;51.476;7.210;2023-02-28T22:02:48;4.00;10.90
11423;DHT22;5768;51.476;7.210;2023-02-28T22:07:51;4.00;10.90
11423;DHT22;5768;51.476;7.210;2023-02-28T22:12:53;4.00;10.90
11423;DHT22;5768;51.476;7.210;2023-02-28T22:17:55;4.00;10.90
11423;DHT22;5768;51.476;7.210;2023-02-28T22:22:58;3.80;10.90
11423;DHT22;5768;51.476;7.210;2023-02-28T22:28:00;3.70;10.90
11423;DHT22;5768;51.476;7.210;2023-02-28T22:33:03;3.80;11.00
11423;DHT22;5768;51.476;7.210;2023-02-28T22:38:06;3.80;11.00
11423;DHT22;5768;51.476;7.210;2023-02-28T22:43:09;3.70;11.10
11423;DHT22;5768;51.476;7.210;2023-02-28T22:48:11;3.60;11.10
11423;DHT22;5768;51.476;7.210;2023-02-28T22:53:15;3.50;11.20
11423;DHT22;5768;51.476;7.210;2023-02-28T22:58:17;3.50;11.20
11423;DHT22;5768;51.476;7.210;2023-02-28T23:03:19;3.50;11.20
11423;DHT22;5768;51.476;7.210;2023-02-28T23:08:23;3.40;11.20
11423;DHT22;5768;51.476;7.210;2023-02-28T23:13:25;3.30;11.30
11423;DHT22;5768;51.476;7.210;2023-02-28T23:18:27;3.30;11.30
11423;DHT22;5768;51.476;7.210;2023-02-28T23:23:32;3.30;11.40
11423;DHT22;5768;51.476;7.210;2023-02-28T23:28:34;3.20;11.40
11423;DHT22;5768;51.476;7.210;2023-02-28T23:33:36;3.10;11.40
11423;DHT22;5768;51.476;7.210;2023-02-28T23:38:41;3.10;11.50
11423;DHT22;5768;51.476;7.210;2023-02-28T23:43:47;3.10;11.50
11423;DHT22;5768;51.476;7.210;2023-02-28T23:48:50;3.10;11.50
11423;DHT22;5768;51.476;7.210;2023-02-28T23:53:53;3.00;11.50
11423;DHT22;5768;51.476;7.210;2023-02-28T23:58:55;3.10;11.60
